Time;durP1;ratioP1;P1;durP2;ratioP2;P2;SDS_P1;SDS_P2;PMS_P1;PMS_P2;Temp;Humidity;BMP_temperature;BMP_pressure;BME280_temperature;BME280_humidity;BME280_pressure;Samples;Min_cycle;Max_cycle;Signal;HPM_P1;HPM_P2
2023/01/30 00:01:02;;;;;;;50.38;39.25;;;;;;;-1.81;97.06;96610.91;5076581;28;20120;-62
2023/01/30 00:03:28;;;;;;;61.38;43.15;;;;;;;-1.80;96.86;96605.72;5080719;28;20028;-61
2023/01/30 00:05:53;;;;;;;88.28;53.83;;;;;;;-1.81;96.52;96610.91;5080829;28;20502;-63
2023/01/30 00:08:19;;;;;;;73.65;48.00;;;;;;;-1.80;96.75;96610.03;5079273;28;20116;-70
2023/01/30 00:10:45;;;;;;;48.67;39.50;;;;;;;-1.86;97.38;96598.16;5083834;28;20401;-70
2023/01/30 00:13:13;;;;;;;46.38;37.85;;;;;;;-1.88;96.95;96590.44;5087402;28;20028;-71
2023/01/30 00:15:39;;;;;;;51.47;39.80;;;;;;;-1.83;96.12;96586.88;5084100;28;20050;-72
2023/01/30 00:18:05;;;;;;;63.47;51.55;;;;;;;-1.67;95.08;96574.38;5080608;28;20031;-70
2023/01/30 00:20:30;;;;;;;61.40;49.58;;;;;;;-1.82;96.22;96571.38;5064188;28;20101;-70
2023/01/30 00:22:57;;;;;;;63.42;51.28;;;;;;;-1.91;97.64;96569.03;5087862;28;20772;-59
2023/01/30 00:25:22;;;;;;;66.25;53.40;;;;;;;-1.91;96.81;96569.91;5077200;28;20020;-70
2023/01/30 00:27:48;;;;;;;68.47;53.58;;;;;;;-1.76;96.33;96573.75;5081516;28;20031;-59
2023/01/30 00:30:13;;;;;;;78.47;58.13;;;;;;;-1.91;97.68;96566.44;5083328;28;20035;-59
2023/01/30 00:32:38;;;;;;;74.95;54.60;;;;;;;-1.64;95.92;96562.22;5079709;28;20035;-59
2023/01/30 00:35:05;;;;;;;76.47;51.92;;;;;;;-1.60;95.24;96568.97;5083909;28;20032;-59
2023/01/30 00:37:31;;;;;;;69.00;48.90;;;;;;;-1.74;95.52;96566.81;5082487;28;20046;-60
2023/01/30 00:39:56;;;;;;;61.45;47.88;;;;;;;-1.86;96.82;96559.44;5088054;28;20383;-59
2023/01/30 00:47:49;;;;;;;48.60;40.88;;;;;;;-1.53;93.75;96561.91;5087669;28;20051;-61
2023/01/30 00:50:15;;;;;;;54.50;44.28;;;;;;;-1.64;93.20;96561.41;5081366;28;20402;-62
2023/01/30 00:52:40;;;;;;;52.58;41.90;;;;;;;-1.81;93.77;96559.28;5079106;28;20050;-61
2023/01/30 00:55:06;;;;;;;53.58;43.55;;;;;;;-1.96;95.48;96560.59;5082723;28;20394;-61
2023/01/30 00:57:31;;;;;;;56.72;44.28;;;;;;;-2.12;96.34;96561.00;5077373;28;20024;-61
2023/01/30 00:59:57;;;;;;;49.50;40.00;;;;;;;-2.16;95.71;96567.16;5088809;28;20032;-61
2023/01/30 01:02:22;;;;;;;50.78;42.50;;;;;;;-1.90;94.64;96568.13;5081810;28;20025;-59
2023/01/30 01:04:47;;;;;;;46.55;40.95;;;;;;;-2.00;93.71;96561.56;5078135;28;20551;-62
2023/01/30 01:07:14;;;;;;;49.15;39.47;;;;;;;-2.02;94.96;96571.91;5079324;28;20063;-62
2023/01/30 01:09:40;;;;;;;47.90;38.72;;;;;;;-2.02;94.52;96567.63;5078262;28;20039;-62
2023/01/30 01:12:05;;;;;;;45.05;38.72;;;;;;;-2.00;94.06;96569.31;5082701;28;20028;-62
2023/01/30 01:14:31;;;;;;;50.08;39.80;;;;;;;-2.05;95.68;96567.72;5086675;28;20031;-62
2023/01/30 01:16:56;;;;;;;44.22;38.08;;;;;;;-2.07;94.74;96578.94;5081383;28;20027;-61
2023/01/30 01:19:22;;;;;;;47.35;39.65;;;;;;;-2.10;96.04;96567.00;5083407;28;20033;-62
2023/01/30 01:21:47;;;;;;;44.10;38.75;;;;;;;-2.11;96.23;96569.59;5075080;28;20063;-72
2023/01/30 01:24:14;;;;;;;43.92;38.40;;;;;;;-2.07;96.39;96569.50;5092630;28;20078;-62
2023/01/30 01:26:40;;;;;;;48.67;40.15;;;;;;;-2.05;95.38;96572.88;5079591;28;20786;-62
2023/01/30 01:29:10;;;;;;;48.95;40.63;;;;;;;-2.03;95.77;96568.50;5082341;28;20103;-61
2023/01/30 01:31:35;;;;;;;47.95;40.53;;;;;;;-2.02;95.39;96574.50;5083034;28;20093;-62
2023/01/30 01:34:00;;;;;;;49.30;40.28;;;;;;;-2.00;95.37;96574.47;5079744;28;20047;-61
2023/01/30 01:36:26;;;;;;;47.45;40.15;;;;;;;-2.04;95.67;96571.13;5079063;28;20016;-61
2023/01/30 01:38:51;;;;;;;48.00;39.22;;;;;;;-2.10;95.45;96574.75;5080697;28;20039;-69
2023/01/30 01:41:17;;;;;;;45.15;39.03;;;;;;;-2.14;96.19;96575.69;5091156;28;20031;-62
2023/01/30 01:44:17;;;;;;;46.53;39.40;;;;;;;-2.12;96.01;96578.25;5089050;28;20047;-62
2023/01/30 01:46:57;;;;;;;45.72;39.50;;;;;;;-2.10;95.71;96582.47;4990025;28;20072;-68
2023/01/30 01:49:30;;;;;;;45.03;37.92;;;;;;;-2.04;96.07;96589.19;5075246;28;20409;-62
2023/01/30 01:52:04;;;;;;;49.70;41.45;;;;;;;-2.00;96.17;96597.69;5085847;28;20044;-63
2023/01/30 01:54:42;;;;;;;49.95;41.58;;;;;;;-2.03;96.82;96591.72;5091311;28;20035;-63
2023/01/30 01:57:15;;;;;;;43.75;37.38;;;;;;;-2.03;96.96;96586.56;5088146;28;20033;-63
2023/01/30 01:59:49;;;;;;;47.67;39.78;;;;;;;-2.03;97.54;96583.13;5086440;28;20077;-62
2023/01/30 02:02:15;;;;;;;52.58;41.45;;;;;;;-2.00;97.15;96595.13;5080731;28;20490;-71
2023/01/30 02:05:05;;;;;;;69.07;44.90;;;;;;;-1.98;97.03;96596.78;5086845;28;20107;-71
2023/01/30 02:07:52;;;;;;;62.53;44.65;;;;;;;-1.96;98.53;96588.97;5088706;28;20024;-71
2023/01/30 02:10:27;;;;;;;65.22;45.40;;;;;;;-1.98;97.30;96589.03;5077813;28;20439;-72
2023/01/30 02:12:52;;;;;;;42.05;37.25;;;;;;;-1.98;97.17;96594.19;5083893;28;20031;-72
2023/01/30 02:15:18;;;;;;;47.28;38.90;;;;;;;-1.99;98.23;96581.31;5087079;28;20085;-71
2023/01/30 02:17:44;;;;;;;44.08;38.42;;;;;;;-2.02;99.23;96583.09;5084912;28;20503;-70
2023/01/30 02:20:31;;;;;;;51.88;40.58;;;;;;;-2.06;98.78;96581.50;5084742;28;20123;-72
2023/01/30 02:23:31;;;;;;;53.28;43.25;;;;;;;-2.05;98.71;96577.16;5091849;28;20036;-62
2023/01/30 02:26:14;;;;;;;52.28;41.05;;;;;;;-2.04;99.16;96571.97;5036371;28;20037;-62
2023/01/30 02:29:06;;;;;;;52.55;42.47;;;;;;;-2.06;100.00;96567.75;5085648;28;20024;-62
2023/01/30 02:31:40;;;;;;;45.83;39.35;;;;;;;-2.09;100.00;96550.63;5085937;28;20020;-62
2023/01/30 02:34:22;;;;;;;47.50;39.40;;;;;;;-2.06;100.00;96549.66;5083184;28;20024;-62
2023/01/30 02:37:14;;;;;;;46.70;39.28;;;;;;;-2.04;99.34;96541.00;5077601;28;20025;-62
2023/01/30 02:39:58;;;;;;;50.42;43.35;;;;;;;-2.03;99.35;96524.63;5080330;28;20024;-71
2023/01/30 02:42:55;;;;;;;50.67;39.92;;;;;;;-1.98;98.55;96521.06;5074811;28;20095;-63
2023/01/30 02:45:34;;;;;;;57.35;44.92;;;;;;;-2.04;98.45;96515.19;5082266;28;20061;-62
2023/01/30 02:48:03;;;;;;;64.63;47.38;;;;;;;-2.06;98.23;96518.72;5083705;28;20037;-63
2023/01/30 02:50:36;;;;;;;63.72;47.75;;;;;;;-2.09;98.04;96513.63;5088130;28;20397;-62
2023/01/30 02:53:03;;;;;;;55.60;43.75;;;;;;;-2.08;97.78;96521.34;5082424;28;20028;-63
2023/01/30 02:55:28;;;;;;;55.58;46.38;;;;;;;-2.08;97.77;96521.34;5084900;28;20019;-63
2023/01/30 02:57:54;;;;;;;53.15;44.25;;;;;;;-2.06;97.89;96524.72;5077627;28;20483;-62
2023/01/30 03:01:02;;;;;;;55.65;44.85;;;;;;;-2.02;97.24;96528.03;5083475;28;20098;-61
2023/01/30 03:03:50;;;;;;;54.13;42.92;;;;;;;-2.02;97.26;96534.06;5079141;28;20028;-62
2023/01/30 03:06:24;;;;;;;55.47;44.08;;;;;;;-2.01;97.19;96540.06;5077005;28;20466;-61
2023/01/30 03:09:07;;;;;;;53.40;44.72;;;;;;;-2.02;98.12;96546.09;5081622;28;20155;-62
2023/01/30 03:11:51;;;;;;;67.13;47.35;;;;;;;-1.97;97.81;96549.44;5081842;28;20044;-62
2023/01/30 03:14:37;;;;;;;53.00;40.72;;;;;;;-1.71;96.49;96565.88;5082619;28;20571;-62
2023/01/30 03:17:04;;;;;;;;;;;;;;;-1.82;96.75;96566.22;5088699;28;20016;-71
2023/01/30 03:19:30;;;;;;;46.97;38.03;;;;;;;-1.83;96.72;96579.16;5070483;28;20283;-67
2023/01/30 03:21:56;;;;;;;43.95;37.40;;;;;;;-1.94;96.99;96577.72;5086394;28;20028;-67
2023/01/30 03:24:22;;;;;;;41.92;35.70;;;;;;;-1.91;97.14;96575.06;5088674;28;20038;-67
2023/01/30 03:27:02;;;;;;;42.65;35.28;;;;;;;-1.91;97.03;96579.34;5085551;28;20548;-67
2023/01/30 03:29:28;;;;;;;45.15;38.05;;;;;;;-1.93;97.68;96576.84;5082570;28;20401;-67
2023/01/30 03:31:53;;;;;;;44.35;36.58;;;;;;;-1.97;99.28;96579.53;5078232;28;20036;-67
2023/01/30 03:34:20;;;;;;;42.88;36.72;;;;;;;-2.02;99.33;96580.53;5085922;28;20043;-63
2023/01/30 03:36:46;;;;;;;43.53;35.53;;;;;;;-2.04;99.17;96592.63;5084676;28;20036;-62
2023/01/30 03:39:11;;;;;;;36.88;32.88;;;;;;;-1.96;97.76;96596.72;5085424;28;20092;-63
2023/01/30 03:41:37;;;;;;;33.85;29.70;;;;;;;-1.93;96.12;96591.47;5074246;28;20020;-62
2023/01/30 03:44:02;;;;;;;34.65;31.02;;;;;;;-1.92;95.42;96593.16;5084868;28;20052;-63
2023/01/30 03:46:28;;;;;;;31.70;28.20;;;;;;;-1.87;94.11;96604.22;5088672;28;20027;-62
2023/01/30 03:48:53;;;;;;;32.00;28.10;;;;;;;-1.91;93.93;96610.34;5088323;28;20020;-63
2023/01/30 03:51:18;;;;;;;33.83;29.58;;;;;;;-1.92;93.90;96614.66;5085396;28;20024;-62
2023/01/30 03:53:44;;;;;;;33.67;30.02;;;;;;;-1.92;93.91;96613.81;5079316;28;20077;-62
2023/01/30 03:56:09;;;;;;;31.38;28.00;;;;;;;-1.88;93.17;96618.00;5085465;28;20032;-62
2023/01/30 03:58:36;;;;;;;31.58;28.25;;;;;;;-1.90;92.86;96636.13;5080500;28;20020;-62
2023/01/30 04:01:03;;;;;;;32.95;29.48;;;;;;;-1.89;92.67;96642.09;5065343;28;20032;-63
2023/01/30 04:03:30;;;;;;;30.17;26.88;;;;;;;-1.91;92.05;96647.34;5084817;28;20032;-63
2023/01/30 04:05:56;;;;;;;30.95;27.63;;;;;;;-1.89;91.68;96644.69;5066741;28;20402;-62
2023/01/30 04:08:22;;;;;;;34.47;29.40;;;;;;;-1.88;92.00;96646.38;5048672;28;20036;-62
2023/01/30 04:10:47;;;;;;;31.02;27.45;;;;;;;-1.85;92.77;96648.91;5070490;28;20027;-62
2023/01/30 04:13:12;;;;;;;31.17;27.98;;;;;;;-1.85;92.18;96650.63;5080656;28;20493;-71
2023/01/30 04:15:38;;;;;;;31.65;28.35;;;;;;;-1.80;91.59;96672.00;5076919;28;20411;-59
2023/01/30 04:18:03;;;;;;;29.80;26.10;;;;;;;-1.79;90.78;96687.47;5081193;28;20028;-71
2023/01/30 04:20:29;;;;;;;30.33;26.90;;;;;;;-1.78;91.69;96694.31;5070291;28;20028;-70
2023/01/30 04:22:55;;;;;;;29.35;26.20;;;;;;;-1.83;92.40;96709.09;5083199;28;20136;-70
2023/01/30 04:25:20;;;;;;;29.05;26.08;;;;;;;-1.89;90.38;96719.56;5085597;28;20090;-70
2023/01/30 04:27:46;;;;;;;27.10;24.20;;;;;;;-1.89;89.88;96717.84;5080982;28;20021;-70
2023/01/30 04:30:11;;;;;;;29.23;26.33;;;;;;;-1.93;89.39;96715.38;5082719;28;20088;-70
2023/01/30 04:32:37;;;;;;;28.58;25.52;;;;;;;-1.94;90.03;96695.59;5085323;28;20568;-63
2023/01/30 04:35:02;;;;;;;30.15;25.80;;;;;;;-1.94;89.64;96686.13;5065873;28;20024;-62
2023/01/30 04:37:27;;;;;;;28.40;25.50;;;;;;;-1.94;89.25;96668.06;5081602;28;20072;-62
2023/01/30 04:39:53;;;;;;;27.85;24.00;;;;;;;-1.93;89.39;96669.75;5082473;28;20060;-62
2023/01/30 04:42:18;;;;;;;30.52;27.30;;;;;;;-1.93;90.29;96674.06;5082538;28;20494;-62
2023/01/30 04:44:43;;;;;;;30.08;25.58;;;;;;;-1.93;91.00;96664.59;5075893;28;20032;-62
2023/01/30 04:47:09;;;;;;;27.67;24.67;;;;;;;-1.92;91.02;96686.06;5082275;28;20410;-63
2023/01/30 04:49:34;;;;;;;29.00;25.88;;;;;;;-1.87;90.37;96679.09;5077447;28;20028;-63
2023/01/30 04:51:59;;;;;;;27.92;25.08;;;;;;;-1.88;89.43;96667.91;5084603;28;20034;-63
2023/01/30 04:54:25;;;;;;;30.20;27.23;;;;;;;-1.78;89.74;96670.22;5087089;28;20183;-67
2023/01/30 04:56:50;;;;;;;30.80;27.52;;;;;;;-1.73;89.39;96692.44;5086633;28;20032;-59
2023/01/30 04:59:16;;;;;;;31.60;28.30;;;;;;;-1.60;87.45;96667.13;5083458;28;20035;-59
2023/01/30 05:01:41;;;;;;;29.98;26.70;;;;;;;-1.51;85.66;96660.03;5086395;28;20019;-60
2023/01/30 05:04:07;;;;;;;29.13;26.00;;;;;;;-1.48;84.92;96655.59;5083724;28;20020;-60
2023/01/30 05:06:33;;;;;;;29.55;26.45;;;;;;;-1.66;85.05;96664.72;5082629;28;20028;-60
2023/01/30 05:08:59;;;;;;;27.55;24.63;;;;;;;-1.73;86.29;96645.97;5087234;28;20036;-59
2023/01/30 05:11:27;;;;;;;29.02;25.92;;;;;;;-1.97;87.08;96626.84;5080839;28;20418;-72
2023/01/30 05:13:52;;;;;;;28.73;25.73;;;;;;;-2.12;88.07;96622.94;5088494;28;20032;-62
2023/01/30 05:16:19;;;;;;;30.73;25.33;;;;;;;-2.12;88.12;96628.09;5086872;28;20031;-72
2023/01/30 05:18:45;;;;;;;31.08;27.60;;;;;;;-2.20;88.25;96624.88;5081015;28;20498;-71
2023/01/30 05:21:19;;;;;;;31.17;26.65;;;;;;;-2.18;88.46;96618.81;5079006;28;20046;-71
2023/01/30 05:23:45;;;;;;;29.40;26.20;;;;;;;-2.26;88.89;96612.16;5071211;28;20051;-72
2023/01/30 05:26:12;;;;;;;31.00;27.80;;;;;;;-2.41;89.43;96601.34;5081765;28;20074;-71
2023/01/30 05:28:38;;;;;;;33.42;28.20;;;;;;;-2.41;89.11;96593.59;5076005;28;20032;-72
2023/01/30 05:31:09;;;;;;;30.05;26.77;;;;;;;-2.49;88.93;96596.38;5082582;28;20502;-70
2023/01/30 05:33:34;;;;;;;29.00;25.90;;;;;;;-2.38;88.40;96583.19;5075313;28;20028;-71
2023/01/30 05:35:59;;;;;;;30.10;26.95;;;;;;;-2.42;87.83;96573.03;5077460;28;20094;-65
2023/01/30 05:38:25;;;;;;;29.10;25.95;;;;;;;-2.39;87.42;96583.25;5078891;28;20077;-65
2023/01/30 05:41:01;;;;;;;39.45;34.30;;;;;;;-2.53;88.68;96575.91;5080460;28;20053;-64
2023/01/30 05:43:28;;;;;;;30.77;27.42;;;;;;;-2.64;89.15;96564.09;5085475;28;20270;-64
2023/01/30 05:45:55;;;;;;;28.52;25.38;;;;;;;-2.59;88.53;96575.13;5085260;28;20032;-66
2023/01/30 05:48:21;;;;;;;28.98;25.90;;;;;;;-2.60;88.04;96573.44;5084380;28;20842;-66
2023/01/30 05:50:52;;;;;;;32.85;27.65;;;;;;;-2.47;87.43;96561.06;5088922;28;20048;-61
2023/01/30 05:53:18;;;;;;;31.27;27.83;;;;;;;-2.57;88.20;96561.34;5088695;28;20060;-61
2023/01/30 05:55:43;;;;;;;31.63;28.20;;;;;;;-2.64;89.19;96564.09;5089175;28;20048;-61
2023/01/30 05:58:09;;;;;;;31.25;27.90;;;;;;;-2.67;89.37;96574.50;5070558;28;20055;-61
2023/01/30 06:00:35;;;;;;;31.85;27.42;;;;;;;-2.72;90.20;96566.06;5089278;28;20032;-60
2023/01/30 06:03:00;;;;;;;34.15;26.77;;;;;;;-2.75;90.48;96561.81;5088787;28;20032;-61
2023/01/30 06:05:25;;;;;;;31.73;26.92;;;;;;;-2.74;90.08;96555.75;5092156;28;20021;-60
2023/01/30 06:07:51;;;;;;;33.95;28.15;;;;;;;-2.75;89.78;96553.25;5092680;28;20038;-60
2023/01/30 06:10:16;;;;;;;31.85;28.20;;;;;;;-2.77;89.73;96557.56;5092868;28;20024;-70
2023/01/30 06:12:42;;;;;;;27.73;24.30;;;;;;;-2.78;89.55;96564.47;5092387;28;20028;-67
2023/01/30 06:15:07;;;;;;;27.08;24.13;;;;;;;-2.76;89.81;96562.69;5092912;28;20024;-66
2023/01/30 06:17:33;;;;;;;27.17;24.27;;;;;;;-2.78;89.73;96561.88;5092302;28;20013;-66
2023/01/30 06:19:58;;;;;;;27.73;24.85;;;;;;;-2.81;89.85;96569.69;5092813;28;20031;-67
2023/01/30 06:22:23;;;;;;;30.40;27.08;;;;;;;-2.79;90.35;96570.50;5092411;28;20040;-66
2023/01/30 06:24:49;;;;;;;35.38;30.90;;;;;;;-2.83;92.30;96563.75;5092552;28;20482;-67
2023/01/30 06:27:14;;;;;;;46.38;41.38;;;;;;;-2.88;94.58;96548.38;5092244;28;20551;-67
2023/01/30 06:29:39;;;;;;;43.08;35.55;;;;;;;-2.91;95.30;96557.91;5092562;28;20110;-72
2023/01/30 06:32:05;;;;;;;42.65;38.13;;;;;;;-2.96;96.08;96558.03;5092013;28;20083;-63
2023/01/30 06:34:30;;;;;;;42.00;37.10;;;;;;;-3.00;96.90;96561.56;5092355;28;20565;-62
2023/01/30 06:36:56;;;;;;;44.75;39.75;;;;;;;-3.00;97.20;96560.72;5091797;28;20107;-62
2023/01/30 06:39:21;;;;;;;46.45;40.40;;;;;;;-3.05;97.87;96558.25;5091957;28;20024;-62
2023/01/30 06:41:46;;;;;;;44.97;39.92;;;;;;;-3.01;98.37;96575.31;5091847;28;20462;-62
2023/01/30 06:44:12;;;;;;;49.25;42.85;;;;;;;-3.05;98.81;96577.16;5092315;28;20410;-62
2023/01/30 06:46:37;;;;;;;46.40;40.00;;;;;;;-2.98;99.08;96593.31;5091775;28;20078;-62
2023/01/30 06:49:02;;;;;;;47.05;41.40;;;;;;;-2.97;98.96;96587.28;5091645;28;20028;-63
2023/01/30 06:51:28;;;;;;;48.90;43.22;;;;;;;-3.02;100.00;96586.53;5091895;28;20110;-71
2023/01/30 06:53:53;;;;;;;55.60;47.58;;;;;;;-3.03;100.00;96592.56;5091540;28;20047;-68
2023/01/30 06:56:18;;;;;;;54.40;46.13;;;;;;;-3.02;100.00;96599.41;5091945;28;20031;-72
2023/01/30 06:58:44;;;;;;;52.15;44.78;;;;;;;-3.07;100.00;96585.78;5091365;28;20028;-70
2023/01/30 07:01:10;;;;;;;47.60;41.40;;;;;;;-2.94;100.00;96587.19;5091775;28;20032;-69
2023/01/30 07:03:35;;;;;;;49.90;42.90;;;;;;;-2.92;100.00;96588.00;5091684;28;20041;-68
2023/01/30 07:06:01;;;;;;;49.58;42.28;;;;;;;-3.00;100.00;96587.31;5091428;28;20464;-72
2023/01/30 07:08:26;;;;;;;50.08;43.55;;;;;;;-2.98;100.00;96584.72;5090961;28;20027;-63
2023/01/30 07:10:52;;;;;;;53.45;44.42;;;;;;;-2.93;100.00;96588.03;5072610;28;20031;-72
2023/01/30 07:13:17;;;;;;;58.20;44.78;;;;;;;-2.99;100.00;96598.50;5091105;28;20039;-72
2023/01/30 07:15:43;;;;;;;52.60;44.05;;;;;;;-3.06;100.00;96614.09;5090687;28;20397;-70
2023/01/30 07:18:08;;;;;;;54.10;44.83;;;;;;;-3.10;100.00;96616.78;5090747;28;20020;-68
2023/01/30 07:20:34;;;;;;;119.95;75.72;;;;;;;-3.09;100.00;96623.63;5073126;28;20048;-74
2023/01/30 07:23:00;;;;;;;68.25;51.33;;;;;;;-3.07;100.00;96638.19;5090654;28;20485;-72
2023/01/30 07:25:27;;;;;;;103.95;67.05;;;;;;;-3.11;100.00;96633.13;5091133;28;20032;-73
2023/01/30 07:27:55;;;;;;;149.18;85.95;;;;;;;-3.10;100.00;96622.75;5090782;28;20024;-65
2023/01/30 07:30:20;;;;;;;71.85;52.90;;;;;;;-3.01;100.00;96626.88;5091199;28;20085;-76
2023/01/30 07:32:50;;;;;;;48.35;40.72;;;;;;;-2.85;100.00;96636.81;5091244;28;20028;-75
2023/01/30 07:35:16;;;;;;;48.50;41.28;;;;;;;-2.95;100.00;96626.75;5091404;28;20081;-74
2023/01/30 07:37:44;;;;;;;70.85;49.10;;;;;;;-3.03;100.00;96623.47;5090587;28;20050;-76
2023/01/30 07:40:10;;;;;;;95.60;60.83;;;;;;;-3.06;100.00;96614.09;5074934;28;20486;-76
2023/01/30 07:42:35;;;;;;;92.88;57.72;;;;;;;-3.02;100.00;96620.00;5081715;28;21200;-76
2023/01/30 07:45:01;;;;;;;54.80;43.65;;;;;;;-2.98;99.91;96618.22;5090460;28;20055;-74
2023/01/30 07:47:27;;;;;;;44.70;36.58;;;;;;;-2.98;99.90;96625.97;5090998;28;20051;-65
2023/01/30 07:49:52;;;;;;;127.75;75.35;;;;;;;-2.94;97.55;96633.59;5090389;28;20020;-74
2023/01/30 07:52:18;;;;;;;155.88;84.32;;;;;;;-2.93;97.71;96637.84;5091017;28;20080;-74
2023/01/30 07:54:43;;;;;;;46.83;37.00;;;;;;;-2.91;96.69;96637.81;5090857;28;20020;-74
2023/01/30 07:57:08;;;;;;;35.70;31.08;;;;;;;-2.88;97.35;96643.75;5090648;28;20506;-74
2023/01/30 07:59:34;;;;;;;34.10;30.40;;;;;;;-2.84;96.39;96646.25;5089432;28;20051;-74
2023/01/30 08:01:59;;;;;;;38.90;29.58;;;;;;;-2.79;95.41;96645.25;5087417;28;20083;-74
2023/01/30 08:04:24;;;;;;;91.75;51.28;;;;;;;-2.76;94.75;96641.78;5088654;28;20024;-66
2023/01/30 08:06:50;;;;;;;71.45;45.47;;;;;;;-2.75;94.21;96643.47;5089816;28;20036;-66
2023/01/30 08:09:15;;;;;;;54.97;38.15;;;;;;;-2.67;93.05;96626.06;5089478;28;20031;-61
2023/01/30 08:11:40;;;;;;;93.13;54.83;;;;;;;-2.68;92.22;96626.94;5086093;28;20039;-61
2023/01/30 08:14:06;;;;;;;60.72;41.05;;;;;;;-2.63;92.07;96616.53;5087982;28;20027;-61
2023/01/30 08:16:32;;;;;;;35.92;28.23;;;;;;;-2.41;91.40;96618.56;5088055;28;20035;-61
2023/01/30 08:18:58;;;;;;;32.85;27.95;;;;;;;-2.39;91.72;96602.16;5087935;28;20437;-61
2023/01/30 08:21:23;;;;;;;35.97;26.63;;;;;;;-2.40;91.90;96608.19;5086958;28;20127;-61
2023/01/30 08:23:49;;;;;;;31.42;26.10;;;;;;;-2.26;90.40;96610.41;5085624;28;20051;-65
2023/01/30 08:26:15;;;;;;;31.73;27.27;;;;;;;-2.31;90.08;96615.72;5089351;28;20054;-64
2023/01/30 08:28:40;;;;;;;32.95;29.42;;;;;;;-2.25;90.08;96601.78;5089253;28;20055;-68
2023/01/30 08:31:10;;;;;;;39.92;30.83;;;;;;;-2.20;89.66;96599.09;5088489;28;20022;-68
2023/01/30 08:33:36;;;;;;;32.25;28.50;;;;;;;-2.16;89.73;96603.28;5089481;28;20047;-67
2023/01/30 08:36:01;;;;;;;31.95;27.35;;;;;;;-2.23;90.06;96614.66;5089107;28;20497;-68
2023/01/30 08:38:26;;;;;;;33.08;28.63;;;;;;;-2.24;90.38;96629.28;5078491;28;20459;-68
2023/01/30 08:40:52;;;;;;;31.98;28.65;;;;;;;-2.27;90.64;96642.25;5058833;28;20035;-68
2023/01/30 08:43:17;;;;;;;31.98;28.48;;;;;;;-2.24;91.03;96655.06;5088137;28;20119;-66
2023/01/30 08:45:43;;;;;;;31.65;28.23;;;;;;;-2.25;90.17;96668.03;5088497;28;20032;-60
2023/01/30 08:48:08;;;;;;;64.53;44.08;;;;;;;-2.28;90.74;96691.31;5089085;28;20096;-60
2023/01/30 08:50:35;;;;;;;53.45;37.58;;;;;;;-2.24;90.56;96700.69;5088677;28;20043;-61
2023/01/30 08:53:05;;;;;;;42.20;32.67;;;;;;;-2.21;89.53;96693.72;5083203;28;20031;-61
2023/01/30 08:55:30;;;;;;;39.33;31.27;;;;;;;-2.23;90.93;96689.47;5085291;28;20059;-61
2023/01/30 08:57:55;;;;;;;39.70;31.23;;;;;;;-2.12;90.77;96686.63;5088806;28;20108;-62
2023/01/30 09:00:21;;;;;;;34.50;29.02;;;;;;;-1.99;90.71;96694.88;5088892;28;20073;-61
2023/01/30 09:02:46;;;;;;;34.83;30.27;;;;;;;-1.81;89.64;96715.06;5089454;28;20032;-66
2023/01/30 09:05:12;;;;;;;35.15;29.48;;;;;;;-1.74;89.50;96701.09;5088786;28;20103;-68
2023/01/30 09:07:37;;;;;;;32.95;27.88;;;;;;;-1.65;88.44;96712.91;5088833;28;20063;-73
2023/01/30 09:10:03;;;;;;;33.42;28.83;;;;;;;-1.49;88.09;96715.91;5088557;28;20035;-73
2023/01/30 09:12:29;;;;;;;31.25;27.80;;;;;;;-1.31;87.04;96705.94;5086586;28;20866;-73
2023/01/30 09:14:56;;;;;;;31.73;27.95;;;;;;;-1.20;86.14;96700.47;5088937;28;20024;-73
2023/01/30 09:17:22;;;;;;;34.30;30.65;;;;;;;-1.06;85.97;96689.72;5087480;28;20495;-73
2023/01/30 09:19:48;;;;;;;35.65;31.77;;;;;;;-0.87;85.11;96692.59;5088714;28;20032;-73
2023/01/30 09:22:13;;;;;;;40.10;32.95;;;;;;;-0.80;85.09;96667.38;5070145;28;20031;-66
2023/01/30 09:24:38;;;;;;;39.00;33.60;;;;;;;-0.66;84.72;96670.38;5087869;28;20404;-68
2023/01/30 09:27:04;;;;;;;40.20;33.70;;;;;;;-0.59;84.74;96673.63;5088676;28;20541;-64
2023/01/30 09:29:29;;;;;;;41.17;36.08;;;;;;;-0.48;84.68;96668.94;5088760;28;20028;-64
2023/01/30 09:31:58;;;;;;;39.72;34.15;;;;;;;-0.49;83.89;96672.41;5088421;28;20024;-64
2023/01/30 09:34:27;;;;;;;41.83;34.60;;;;;;;-0.65;84.22;96669.50;5088961;28;20032;-64
2023/01/30 09:36:59;;;;;;;39.33;33.88;;;;;;;-0.80;83.44;96660.47;5088374;28;20090;-64
2023/01/30 09:39:25;;;;;;;39.53;34.00;;;;;;;-0.83;84.05;96667.47;5090125;28;20024;-64
2023/01/30 09:42:18;;;;;;;37.35;31.73;;;;;;;-0.59;83.49;96660.69;5091837;28;20558;-74
2023/01/30 09:45:14;;;;;;;38.92;32.45;;;;;;;-0.60;83.13;96649.50;5092323;28;20032;-61
2023/01/30 09:47:47;;;;;;;43.80;33.38;;;;;;;-0.35;81.46;96663.38;5092444;28;20509;-60
2023/01/30 09:50:19;;;;;;;40.80;33.63;;;;;;;-0.13;80.75;96681.59;5091220;28;20516;-62
2023/01/30 09:52:56;;;;;;;37.05;31.73;;;;;;;0.40;77.70;96672.88;5092765;28;20051;-61
2023/01/30 09:55:30;;;;;;;36.00;30.77;;;;;;;0.59;75.20;96671.38;5073935;28;20027;-60
2023/01/30 09:57:57;;;;;;;39.35;32.15;;;;;;;0.93;75.00;96683.06;5092795;28;20050;-61
2023/01/30 10:00:33;;;;;;;57.28;46.60;;;;;;;1.06;74.30;96688.63;5091570;28;20110;-63
2023/01/30 10:03:07;;;;;;;38.92;32.13;;;;;;;1.34;72.54;96674.59;5074745;28;20024;-61
2023/01/30 10:05:47;;;;;;;38.50;30.53;;;;;;;1.45;71.01;96671.56;5092257;28;20039;-65
2023/01/30 10:08:49;;;;;;;34.25;29.48;;;;;;;1.52;70.52;96678.19;5091804;28;20016;-64
2023/01/30 10:11:43;;;;;;;35.65;31.13;;;;;;;1.51;71.00;96668.72;5088837;28;20028;-64
2023/01/30 10:14:30;;;;;;;37.90;33.90;;;;;;;1.56;70.58;96679.75;5092107;28;20039;-64
2023/01/30 10:17:10;;;;;;;33.80;30.25;;;;;;;1.37;70.54;96664.91;5087900;28;20031;-64
2023/01/30 10:20:13;;;;;;;33.10;27.77;;;;;;;1.27;69.04;96656.66;5091499;28;20020;-65
2023/01/30 10:23:01;;;;;;;36.42;30.00;;;;;;;1.51;70.32;96663.53;5058649;28;20092;-66
2023/01/30 10:25:43;;;;;;;35.42;31.67;;;;;;;1.75;70.11;96658.25;5091818;28;20669;-63
2023/01/30 10:28:24;;;;;;;33.40;29.80;;;;;;;1.99;70.49;96659.78;5091798;28;20024;-63
2023/01/30 10:30:55;;;;;;;31.30;27.92;;;;;;;2.07;70.32;96663.81;5091151;28;20020;-64
2023/01/30 10:33:27;;;;;;;31.20;27.65;;;;;;;2.21;68.74;96686.59;5091837;28;20031;-64
2023/01/30 10:36:03;;;;;;;33.40;29.80;;;;;;;2.29;67.21;96685.38;5091461;28;20024;-63
2023/01/30 10:38:49;;;;;;;35.05;31.20;;;;;;;2.04;67.89;96664.81;5091456;28;20108;-64
2023/01/30 10:41:35;;;;;;;30.02;26.77;;;;;;;2.21;67.69;96660.63;5091148;28;20032;-63
2023/01/30 10:44:12;;;;;;;31.20;27.92;;;;;;;2.23;66.13;96661.41;5091463;28;20052;-67
2023/01/30 10:47:16;;;;;;;32.58;27.92;;;;;;;2.36;66.14;96659.13;5086593;28;20505;-66
2023/01/30 10:49:50;;;;;;;30.17;26.85;;;;;;;2.33;66.62;96659.28;5082314;28;20040;-66
2023/01/30 10:52:52;;;;;;;30.42;26.75;;;;;;;2.22;64.09;96665.75;5089820;28;20675;-66
2023/01/30 10:55:39;;;;;;;30.10;26.92;;;;;;;2.45;65.89;96668.28;5078055;28;20498;-67
2023/01/30 10:58:22;;;;;;;32.38;29.13;;;;;;;2.63;64.64;96671.81;5090966;28;20021;-71
2023/01/30 11:01:13;;;;;;;30.75;27.45;;;;;;;2.61;65.25;96674.47;5090785;28;20088;-64
2023/01/30 11:03:46;;;;;;;30.98;27.67;;;;;;;2.72;65.22;96671.38;5090727;28;20020;-65
2023/01/30 11:06:19;;;;;;;29.10;26.00;;;;;;;2.74;64.77;96653.13;5087571;28;20040;-65
2023/01/30 11:08:45;;;;;;;30.08;26.98;;;;;;;2.79;63.71;96641.59;5079886;28;20085;-64
2023/01/30 11:11:32;;;;;;;32.63;29.05;;;;;;;2.88;63.28;96642.06;5090184;28;20024;-64
2023/01/30 11:14:06;;;;;;;30.90;27.67;;;;;;;2.89;64.72;96636.81;5091255;28;20098;-64
2023/01/30 11:16:42;;;;;;;29.48;26.38;;;;;;;3.03;62.40;96627.50;5090793;28;20028;-64
2023/01/30 11:19:08;;;;;;;31.25;27.95;;;;;;;3.10;63.19;96634.94;5090504;28;20027;-72
2023/01/30 11:21:34;;;;;;;31.15;27.83;;;;;;;3.32;62.68;96628.72;5090154;28;20028;-74
2023/01/30 11:24:11;;;;;;;30.95;27.77;;;;;;;3.41;62.34;96630.03;5090960;28;20020;-74
2023/01/30 11:26:37;;;;;;;29.58;26.42;;;;;;;3.26;62.30;96629.84;5079406;28;20012;-73
2023/01/30 11:29:28;;;;;;;29.10;25.95;;;;;;;3.29;61.69;96636.69;5090499;28;20027;-73
2023/01/30 11:31:55;;;;;;;27.58;24.77;;;;;;;3.40;61.96;96641.38;5090148;28;20020;-73
2023/01/30 11:34:24;;;;;;;28.83;25.63;;;;;;;3.26;62.13;96647.25;5090317;28;20026;-73